createdAt,value
2023-09-23T00:01:27.023Z,11.51
2023-09-23T00:03:54.213Z,11.50
2023-09-23T00:06:22.277Z,11.48
2023-09-23T00:08:49.703Z,11.47
2023-09-23T00:11:16.523Z,11.49
2023-09-23T00:13:43.879Z,11.47
2023-09-23T00:16:15.918Z,11.48
2023-09-23T00:18:47.017Z,11.50
2023-09-23T00:21:14.299Z,11.47
2023-09-23T00:23:41.145Z,11.44
2023-09-23T00:26:11.354Z,11.47
2023-09-23T00:28:38.084Z,11.52
2023-09-23T00:31:12.655Z,11.55
2023-09-23T00:33:39.790Z,11.55
2023-09-23T00:36:08.627Z,11.48
2023-09-23T00:38:35.295Z,11.47
2023-09-23T00:41:04.706Z,11.46
2023-09-23T00:43:33.716Z,11.43
2023-09-23T00:46:01.099Z,11.40
2023-09-23T00:48:32.228Z,11.39
2023-09-23T00:51:01.122Z,11.40
2023-09-23T00:53:30.460Z,11.39
2023-09-23T00:55:58.700Z,11.39
2023-09-23T00:58:28.034Z,11.38
2023-09-23T01:00:56.164Z,11.40
2023-09-23T01:03:23.490Z,11.41
2023-09-23T01:06:12.622Z,11.43
2023-09-23T01:08:39.727Z,11.42
2023-09-23T01:11:10.213Z,11.49
2023-09-23T01:13:37.299Z,11.49
2023-09-23T01:16:13.167Z,11.45
2023-09-23T01:18:50.886Z,11.42
2023-09-23T01:21:17.412Z,11.43
2023-09-23T01:23:45.726Z,11.37
2023-09-23T01:26:15.361Z,11.29
2023-09-23T01:28:42.308Z,11.20
2023-09-23T01:31:09.562Z,11.23
2023-09-23T01:33:36.774Z,11.24
2023-09-23T01:36:04.353Z,11.27
2023-09-23T01:38:32.172Z,11.30
2023-09-23T01:41:00.871Z,11.31
2023-09-23T01:43:28.149Z,11.29
2023-09-23T01:46:00.162Z,11.24
2023-09-23T01:48:31.315Z,11.22
2023-09-23T01:51:01.550Z,11.13
2023-09-23T01:53:29.270Z,11.16
2023-09-23T01:55:56.167Z,11.15
2023-09-23T01:58:24.024Z,11.13
2023-09-23T02:00:51.966Z,11.11
2023-09-23T02:03:18.731Z,11.16
2023-09-23T02:05:47.980Z,11.13
2023-09-23T02:08:15.425Z,11.07
2023-09-23T02:10:44.844Z,11.06
2023-09-23T02:13:11.385Z,11.01
2023-09-23T02:15:37.845Z,10.97
2023-09-23T02:18:05.650Z,11.01
2023-09-23T02:20:32.281Z,11.06
2023-09-23T02:22:58.883Z,11.05
2023-09-23T02:25:28.452Z,11.05
2023-09-23T02:27:57.038Z,11.01
2023-09-23T02:30:24.472Z,10.98
2023-09-23T02:32:51.038Z,10.97
2023-09-23T02:35:17.877Z,10.97
2023-09-23T02:37:49.665Z,10.93
2023-09-23T02:40:16.533Z,10.95
2023-09-23T02:42:44.830Z,10.95
2023-09-23T02:45:13.691Z,10.94
2023-09-23T02:47:41.723Z,10.86
2023-09-23T02:50:11.364Z,10.89
2023-09-23T02:52:40.165Z,10.89
2023-09-23T02:55:14.079Z,10.87
2023-09-23T02:57:42.481Z,10.84
2023-09-23T03:00:19.533Z,10.86
2023-09-23T03:02:57.616Z,10.84
2023-09-23T03:05:30.963Z,10.81
2023-09-23T03:08:00.029Z,10.81
2023-09-23T03:10:40.596Z,10.87
2023-09-23T03:13:08.895Z,10.89
2023-09-23T03:15:37.793Z,10.90
2023-09-23T03:18:06.646Z,10.93
2023-09-23T03:20:35.584Z,10.93
2023-09-23T03:23:02.156Z,10.88
2023-09-23T03:25:28.899Z,10.90
2023-09-23T03:27:56.545Z,10.88
2023-09-23T03:30:24.342Z,10.94
2023-09-23T03:32:51.055Z,10.95
2023-09-23T03:35:19.048Z,10.95
2023-09-23T03:37:51.916Z,10.93
2023-09-23T03:40:28.179Z,10.91
2023-09-23T03:42:54.670Z,10.91
2023-09-23T03:45:21.194Z,10.91
2023-09-23T03:47:48.152Z,10.88
2023-09-23T03:50:16.149Z,10.85
2023-09-23T03:52:43.842Z,10.84
2023-09-23T03:55:12.438Z,10.83
2023-09-23T03:57:39.462Z,10.85
2023-09-23T04:00:19.253Z,10.83
2023-09-23T04:02:48.684Z,10.83
2023-09-23T04:05:16.341Z,10.83
2023-09-23T04:07:52.146Z,10.79
2023-09-23T04:10:21.032Z,10.83
2023-09-23T04:12:47.610Z,10.79
2023-09-23T04:15:14.254Z,10.81
2023-09-23T04:17:40.974Z,10.77
2023-09-23T04:20:12.021Z,10.74
2023-09-23T04:22:39.289Z,10.68
2023-09-23T04:25:07.123Z,10.67
2023-09-23T04:27:38.797Z,10.67
2023-09-23T04:30:10.688Z,10.65
2023-09-23T04:32:37.878Z,10.63
2023-09-23T04:35:05.206Z,10.62
2023-09-23T04:37:34.945Z,10.62
2023-09-23T04:40:01.520Z,10.60
2023-09-23T04:42:28.258Z,10.58
2023-09-23T04:44:54.719Z,10.55
2023-09-23T04:47:21.254Z,10.61
2023-09-23T04:49:47.857Z,10.60
2023-09-23T04:52:16.762Z,10.61
2023-09-23T04:54:43.889Z,10.62
2023-09-23T04:57:10.583Z,10.61
2023-09-23T04:59:37.175Z,10.60
2023-09-23T05:02:04.777Z,10.63
2023-09-23T05:04:31.526Z,10.59
2023-09-23T05:06:58.357Z,10.62
2023-09-23T05:09:27.417Z,10.61
2023-09-23T05:11:54.197Z,10.54
2023-09-23T05:14:22.015Z,10.56
2023-09-23T05:16:51.723Z,10.61
2023-09-23T05:19:20.802Z,10.65
2023-09-23T05:21:48.178Z,10.69
2023-09-23T05:24:15.089Z,10.72
2023-09-23T05:26:41.722Z,10.73
2023-09-23T05:29:08.457Z,10.73
2023-09-23T05:31:37.463Z,10.77
2023-09-23T05:34:05.122Z,10.79
2023-09-23T05:36:32.773Z,10.80
2023-09-23T05:39:00.138Z,10.79
2023-09-23T05:41:26.863Z,10.81
2023-09-23T05:43:53.787Z,10.83
2023-09-23T05:46:20.377Z,10.82
2023-09-23T05:48:49.915Z,10.83
2023-09-23T05:51:16.945Z,10.83
2023-09-23T05:53:44.186Z,10.84
2023-09-23T05:56:10.948Z,10.86
2023-09-23T05:58:37.631Z,10.87
2023-09-23T06:01:04.732Z,10.88
2023-09-23T06:03:31.275Z,10.90
2023-09-23T06:05:57.929Z,10.92
2023-09-23T06:08:24.492Z,10.91
2023-09-23T06:10:53.079Z,10.91
2023-09-23T06:13:19.726Z,10.93
2023-09-23T06:15:48.878Z,10.96
2023-09-23T06:18:15.908Z,10.96
2023-09-23T06:20:42.519Z,10.99
2023-09-23T06:23:09.130Z,10.99
2023-09-23T06:25:35.788Z,11.01
2023-09-23T06:28:02.395Z,11.03
2023-09-23T06:30:28.982Z,11.03
2023-09-23T06:32:55.475Z,11.03
2023-09-23T06:35:22.023Z,11.05
2023-09-23T06:37:48.554Z,11.06
2023-09-23T06:40:15.847Z,11.08
2023-09-23T06:42:42.581Z,11.10
2023-09-23T06:45:10.963Z,11.13
2023-09-23T06:47:38.008Z,11.15
2023-09-23T06:50:05.898Z,11.17
2023-09-23T06:52:32.425Z,11.20
2023-09-23T06:55:00.456Z,11.26
2023-09-23T06:57:27.277Z,11.28
2023-09-23T06:59:53.988Z,11.30
2023-09-23T07:02:21.351Z,11.37
2023-09-23T07:04:48.675Z,11.44
2023-09-23T07:07:15.240Z,11.48
2023-09-23T07:09:41.739Z,11.47
2023-09-23T07:12:10.302Z,11.51
2023-09-23T07:14:36.733Z,11.53
2023-09-23T07:17:05.495Z,11.57
2023-09-23T07:19:32.052Z,11.60
2023-09-23T07:21:58.561Z,11.63
2023-09-23T07:24:27.380Z,11.68
2023-09-23T07:26:58.765Z,11.77
2023-09-23T07:29:26.092Z,11.85
2023-09-23T07:31:56.239Z,11.93
2023-09-23T07:34:23.123Z,12.02
2023-09-23T07:36:49.809Z,12.07
2023-09-23T07:39:17.793Z,12.09
2023-09-23T07:41:44.375Z,12.12
2023-09-23T07:44:12.481Z,12.19
2023-09-23T07:46:39.151Z,12.27
2023-09-23T07:49:06.405Z,12.36
2023-09-23T07:51:32.819Z,12.46
2023-09-23T07:53:59.385Z,12.53
2023-09-23T07:56:26.010Z,12.54
2023-09-23T07:58:52.572Z,12.54
2023-09-23T08:01:19.082Z,12.50
2023-09-23T08:03:45.779Z,12.47
2023-09-23T08:06:13.140Z,12.47
2023-09-23T08:08:39.636Z,12.50
2023-09-23T08:11:06.488Z,12.52
2023-09-23T08:13:33.028Z,12.53
2023-09-23T08:16:00.257Z,12.60
2023-09-23T08:18:26.771Z,12.68
2023-09-23T08:21:00.613Z,12.73
2023-09-23T08:23:27.949Z,12.82
2023-09-23T08:25:55.445Z,12.93
2023-09-23T08:28:22.304Z,13.05
2023-09-23T08:30:51.255Z,13.15
2023-09-23T08:33:17.814Z,13.24
2023-09-23T08:35:48.623Z,13.28
2023-09-23T08:38:15.997Z,13.25
2023-09-23T08:40:45.518Z,13.26
2023-09-23T08:43:12.526Z,13.26
2023-09-23T08:45:47.342Z,13.31
2023-09-23T08:48:14.501Z,13.37
2023-09-23T08:50:44.878Z,13.41
2023-09-23T08:53:14.414Z,13.40
2023-09-23T08:55:41.338Z,13.46
2023-09-23T08:58:07.916Z,13.40
2023-09-23T09:00:35.178Z,13.42
2023-09-23T09:03:02.395Z,13.45
2023-09-23T09:05:39.704Z,13.49
2023-09-23T09:08:09.025Z,13.54
2023-09-23T09:10:35.694Z,13.59
2023-09-23T09:13:04.437Z,13.58
2023-09-23T09:15:34.130Z,13.56
2023-09-23T09:18:03.273Z,13.58
2023-09-23T09:20:30.320Z,13.70
2023-09-23T09:22:56.902Z,13.76
2023-09-23T09:25:23.743Z,13.73
2023-09-23T09:27:52.615Z,13.75
2023-09-23T09:30:20.596Z,13.80
2023-09-23T09:32:48.902Z,13.81
2023-09-23T09:35:17.403Z,13.82
2023-09-23T09:37:46.110Z,13.81
2023-09-23T09:40:18.300Z,13.83
2023-09-23T09:42:55.822Z,13.81
2023-09-23T09:45:23.741Z,13.81
2023-09-23T09:47:53.064Z,13.82
2023-09-23T09:50:20.476Z,13.89
2023-09-23T09:52:47.227Z,13.94
2023-09-23T09:55:18.373Z,13.97
2023-09-23T09:57:45.235Z,14.02
2023-09-23T10:00:32.499Z,14.07
2023-09-23T10:03:07.389Z,14.13
2023-09-23T10:05:48.185Z,14.15
2023-09-23T10:08:19.348Z,14.22
2023-09-23T10:10:48.744Z,14.22
2023-09-23T10:13:16.865Z,14.23
2023-09-23T10:15:44.644Z,14.24
2023-09-23T10:18:41.689Z,14.27
2023-09-23T10:21:21.487Z,14.32
2023-09-23T10:23:48.160Z,14.38
2023-09-23T10:26:19.909Z,14.37
2023-09-23T10:29:06.204Z,14.40
2023-09-23T10:31:34.633Z,14.42
2023-09-23T10:34:08.532Z,14.53
2023-09-23T10:36:37.488Z,14.79
2023-09-23T10:39:07.250Z,14.92
2023-09-23T10:41:37.852Z,14.81
2023-09-23T10:44:04.763Z,14.80
2023-09-23T10:46:32.409Z,14.81
2023-09-23T10:48:59.939Z,14.88
2023-09-23T10:51:27.635Z,14.94
2023-09-23T10:53:56.703Z,14.95
2023-09-23T10:56:23.653Z,14.99
2023-09-23T10:58:53.908Z,14.95
2023-09-23T11:01:22.240Z,14.94
2023-09-23T11:03:49.424Z,14.99
2023-09-23T11:06:17.974Z,15.14
2023-09-23T11:08:45.330Z,15.31
2023-09-23T11:11:13.693Z,15.33
2023-09-23T11:13:40.691Z,15.31
2023-09-23T11:16:10.893Z,15.36
2023-09-23T11:18:39.162Z,15.42
2023-09-23T11:21:06.156Z,15.45
2023-09-23T11:23:34.089Z,15.56
2023-09-23T11:26:00.900Z,15.65
2023-09-23T11:28:28.851Z,15.59
2023-09-23T11:30:57.142Z,15.57
2023-09-23T11:33:24.205Z,15.50
2023-09-23T11:35:50.742Z,15.41
2023-09-23T11:38:19.874Z,15.33
2023-09-23T11:40:47.832Z,15.27
2023-09-23T11:43:14.389Z,15.31
2023-09-23T11:45:43.282Z,15.33
2023-09-23T11:48:10.811Z,15.34
2023-09-23T11:50:39.707Z,15.35
2023-09-23T11:53:06.779Z,15.36
2023-09-23T11:55:34.456Z,15.38
2023-09-23T11:58:01.340Z,15.41
2023-09-23T12:00:28.083Z,15.39
2023-09-23T12:02:54.837Z,15.37
2023-09-23T12:05:22.024Z,15.36
2023-09-23T12:07:48.983Z,15.37
2023-09-23T12:10:15.492Z,15.36
2023-09-23T12:12:44.381Z,15.49
2023-09-23T12:15:11.417Z,15.87
2023-09-23T12:17:38.969Z,15.99
2023-09-23T12:20:12.414Z,16.05
2023-09-23T12:22:39.996Z,16.19
2023-09-23T12:25:07.813Z,16.47
2023-09-23T12:27:34.961Z,16.63
2023-09-23T12:30:02.380Z,16.56
2023-09-23T12:32:29.757Z,16.45
2023-09-23T12:34:56.441Z,16.36
2023-09-23T12:37:22.968Z,16.23
2023-09-23T12:39:49.493Z,16.15
2023-09-23T12:42:16.346Z,16.11
2023-09-23T12:44:43.301Z,16.08
2023-09-23T12:47:10.045Z,16.01
2023-09-23T12:49:38.026Z,15.92
2023-09-23T12:52:05.010Z,15.83
2023-09-23T12:54:32.025Z,15.81
2023-09-23T12:56:58.997Z,15.87
2023-09-23T12:59:25.696Z,15.87
2023-09-23T13:01:52.406Z,16.05
2023-09-23T13:04:19.370Z,16.10
2023-09-23T13:06:46.459Z,16.20
2023-09-23T13:09:13.249Z,16.23
2023-09-23T13:11:40.236Z,16.32
2023-09-23T13:14:08.814Z,16.28
2023-09-23T13:16:35.401Z,16.27
2023-09-23T13:19:02.209Z,16.25
2023-09-23T13:21:28.850Z,16.16
2023-09-23T13:23:55.380Z,16.12
2023-09-23T13:26:22.331Z,16.01
2023-09-23T13:28:49.380Z,15.86
2023-09-23T13:31:16.229Z,15.72
2023-09-23T13:33:42.873Z,15.54
2023-09-23T13:36:10.338Z,15.45
2023-09-23T13:38:36.957Z,15.47
2023-09-23T13:41:05.583Z,15.42
2023-09-23T13:43:32.185Z,15.39
2023-09-23T13:45:59.004Z,15.30
2023-09-23T13:48:25.708Z,15.27
2023-09-23T13:50:52.871Z,15.33
2023-09-23T13:53:19.404Z,15.39
2023-09-23T13:55:46.285Z,15.42
2023-09-23T13:58:13.033Z,15.42
2023-09-23T14:00:39.635Z,15.41
2023-09-23T14:03:06.183Z,15.42
2023-09-23T14:05:33.329Z,15.40
2023-09-23T14:08:00.177Z,15.46
2023-09-23T14:10:26.850Z,15.51
2023-09-23T14:12:53.359Z,15.55
2023-09-23T14:15:20.420Z,15.53
2023-09-23T14:17:48.928Z,15.53
2023-09-23T14:20:15.842Z,15.58
2023-09-23T14:22:46.534Z,15.62
2023-09-23T14:25:14.784Z,15.64
2023-09-23T14:27:41.911Z,15.69
2023-09-23T14:30:09.422Z,15.72
2023-09-23T14:32:36.758Z,15.76
2023-09-23T14:35:04.117Z,15.81
2023-09-23T14:37:33.399Z,15.80
2023-09-23T14:40:01.256Z,15.79
2023-09-23T14:42:28.215Z,15.77
2023-09-23T14:44:54.939Z,15.74
2023-09-23T14:47:21.921Z,15.70
2023-09-23T14:49:48.897Z,15.65
2023-09-23T14:52:15.459Z,15.59
2023-09-23T14:54:42.871Z,15.58
2023-09-23T14:57:09.502Z,15.61
2023-09-23T14:59:36.041Z,15.59
2023-09-23T15:02:03.927Z,15.58
2023-09-23T15:04:32.031Z,15.59
2023-09-23T15:07:00.691Z,15.59
2023-09-23T15:09:27.924Z,15.64
2023-09-23T15:11:54.900Z,15.67
2023-09-23T15:14:30.427Z,15.68
2023-09-23T15:16:56.966Z,15.74
2023-09-23T15:19:23.532Z,15.74
2023-09-23T15:21:50.250Z,15.73
2023-09-23T15:24:18.260Z,15.70
2023-09-23T15:26:45.274Z,15.71
2023-09-23T15:29:12.190Z,15.68
2023-09-23T15:31:39.073Z,15.66
2023-09-23T15:34:06.149Z,15.67
2023-09-23T15:36:32.940Z,15.69
2023-09-23T15:39:00.215Z,15.70
2023-09-23T15:41:26.797Z,15.65
2023-09-23T15:43:53.486Z,15.69
2023-09-23T15:46:20.131Z,15.78
2023-09-23T15:48:46.904Z,15.83
2023-09-23T15:51:16.604Z,15.83
2023-09-23T15:53:43.799Z,15.94
2023-09-23T15:56:18.193Z,15.98
2023-09-23T15:58:45.324Z,15.90
2023-09-23T16:01:12.133Z,15.83
2023-09-23T16:03:38.680Z,15.77
2023-09-23T16:06:05.606Z,15.88
2023-09-23T16:08:32.083Z,15.96
2023-09-23T16:10:58.641Z,16.07
2023-09-23T16:13:25.381Z,16.25
2023-09-23T16:15:51.992Z,16.41
2023-09-23T16:18:21.535Z,16.42
2023-09-23T16:20:51.184Z,16.37
2023-09-23T16:23:18.379Z,16.21
2023-09-23T16:25:45.390Z,16.31
2023-09-23T16:28:11.869Z,16.37
2023-09-23T16:30:38.510Z,16.22
2023-09-23T16:33:05.246Z,16.19
2023-09-23T16:35:31.937Z,16.22
2023-09-23T16:37:58.522Z,16.17
2023-09-23T16:40:25.054Z,16.11
2023-09-23T16:42:51.679Z,16.09
2023-09-23T16:45:18.482Z,16.04
2023-09-23T16:47:45.501Z,16.00
2023-09-23T16:50:12.224Z,15.95
2023-09-23T16:52:38.929Z,15.90
2023-09-23T16:55:05.924Z,15.90
2023-09-23T16:57:32.753Z,15.84
2023-09-23T16:59:59.431Z,15.77
2023-09-23T17:02:26.638Z,15.73
2023-09-23T17:04:53.852Z,15.69
2023-09-23T17:07:20.550Z,15.56
2023-09-23T17:09:47.255Z,15.48
2023-09-23T17:12:14.028Z,15.42
2023-09-23T17:14:40.903Z,15.34
2023-09-23T17:17:07.762Z,15.28
2023-09-23T17:19:35.055Z,15.23
2023-09-23T17:22:01.785Z,15.23
2023-09-23T17:24:30.150Z,15.21
2023-09-23T17:27:04.874Z,15.15
2023-09-23T17:29:31.737Z,15.09
2023-09-23T17:31:58.309Z,15.05
2023-09-23T17:34:25.161Z,15.02
2023-09-23T17:36:51.903Z,14.99
2023-09-23T17:39:18.342Z,14.90
2023-09-23T17:41:45.471Z,14.84
2023-09-23T17:44:12.059Z,14.82
2023-09-23T17:46:38.631Z,14.80
2023-09-23T17:49:05.667Z,14.78
2023-09-23T17:51:34.416Z,14.78
2023-09-23T17:54:02.928Z,14.79
2023-09-23T17:56:29.564Z,14.80
2023-09-23T17:58:56.264Z,14.78
2023-09-23T18:01:23.416Z,14.76
2023-09-23T18:03:50.511Z,14.72
2023-09-23T18:06:17.370Z,14.68
2023-09-23T18:08:44.005Z,14.62
2023-09-23T18:11:11.350Z,14.57
2023-09-23T18:13:39.996Z,14.57
2023-09-23T18:16:07.151Z,14.47
2023-09-23T18:18:34.019Z,14.47
2023-09-23T18:21:01.715Z,14.48
2023-09-23T18:23:28.287Z,14.45
2023-09-23T18:25:56.056Z,14.41
2023-09-23T18:28:22.669Z,14.42
2023-09-23T18:30:49.203Z,14.38
2023-09-23T18:33:15.889Z,14.34
2023-09-23T18:35:42.646Z,14.32
2023-09-23T18:38:09.408Z,14.33
2023-09-23T18:40:36.004Z,14.29
2023-09-23T18:43:02.579Z,14.27
2023-09-23T18:45:29.073Z,14.25
2023-09-23T18:48:08.048Z,14.21
2023-09-23T18:50:39.914Z,14.23
2023-09-23T18:53:06.685Z,14.24
2023-09-23T18:55:33.451Z,14.22
2023-09-23T18:58:06.473Z,14.21
2023-09-23T19:00:33.372Z,14.18
2023-09-23T19:03:00.112Z,14.17
2023-09-23T19:05:29.633Z,14.17
2023-09-23T19:07:56.160Z,14.15
2023-09-23T19:10:23.194Z,14.14
2023-09-23T19:12:49.738Z,14.11
2023-09-23T19:15:17.921Z,14.12
2023-09-23T19:17:45.198Z,14.09
2023-09-23T19:20:12.203Z,14.08
2023-09-23T19:22:38.970Z,14.06
2023-09-23T19:25:08.711Z,14.08
2023-09-23T19:27:36.303Z,14.05
2023-09-23T19:30:06.563Z,14.02
2023-09-23T19:32:33.280Z,13.99
2023-09-23T19:35:00.553Z,13.94
2023-09-23T19:37:27.060Z,13.91
2023-09-23T19:39:53.523Z,13.87
2023-09-23T19:42:20.099Z,13.88
2023-09-23T19:44:46.834Z,13.83
2023-09-23T19:47:13.667Z,13.84
2023-09-23T19:49:40.912Z,13.73
2023-09-23T19:52:07.439Z,13.67
2023-09-23T19:54:35.485Z,13.62
2023-09-23T19:57:02.303Z,13.60
2023-09-23T19:59:28.980Z,13.63
2023-09-23T20:01:55.546Z,13.61
2023-09-23T20:04:22.354Z,13.59
2023-09-23T20:06:48.997Z,13.56
2023-09-23T20:09:15.793Z,13.58
2023-09-23T20:11:43.662Z,13.55
2023-09-23T20:14:10.563Z,13.51
2023-09-23T20:16:37.216Z,13.45
2023-09-23T20:19:04.062Z,13.42
2023-09-23T20:21:30.722Z,13.37
2023-09-23T20:23:57.337Z,13.37
2023-09-23T20:26:24.402Z,13.33
2023-09-23T20:28:50.917Z,13.31
2023-09-23T20:31:17.832Z,13.34
2023-09-23T20:33:44.936Z,13.32
2023-09-23T20:36:11.661Z,13.27
2023-09-23T20:38:40.081Z,13.27
2023-09-23T20:41:07.572Z,13.27
2023-09-23T20:43:36.843Z,13.22
2023-09-23T20:46:04.535Z,13.23
2023-09-23T20:48:31.806Z,13.27
2023-09-23T20:50:58.471Z,13.27
2023-09-23T20:53:25.355Z,13.27
2023-09-23T20:55:52.436Z,13.19
2023-09-23T20:58:19.499Z,13.12
2023-09-23T21:00:46.169Z,13.15
2023-09-23T21:03:15.804Z,13.15
2023-09-23T21:05:43.815Z,13.14
2023-09-23T21:08:11.382Z,13.17
2023-09-23T21:10:38.199Z,13.21
2023-09-23T21:13:04.871Z,13.20
2023-09-23T21:15:32.249Z,13.19
2023-09-23T21:18:02.132Z,13.15
2023-09-23T21:20:29.040Z,13.04
2023-09-23T21:22:55.823Z,13.04
2023-09-23T21:25:22.828Z,13.07
2023-09-23T21:27:49.716Z,12.94
2023-09-23T21:30:17.598Z,12.82
2023-09-23T21:32:44.517Z,12.84
2023-09-23T21:35:11.368Z,12.83
2023-09-23T21:37:38.103Z,12.85
2023-09-23T21:40:05.211Z,12.84
2023-09-23T21:42:31.788Z,12.83
2023-09-23T21:44:59.091Z,12.78
2023-09-23T21:47:26.090Z,12.73
2023-09-23T21:49:52.887Z,12.70
2023-09-23T21:52:19.471Z,12.68
2023-09-23T21:54:45.963Z,12.63
2023-09-23T21:57:12.505Z,12.59
2023-09-23T21:59:39.293Z,12.59
2023-09-23T22:02:08.065Z,12.56
2023-09-23T22:07:01.570Z,12.50
2023-09-23T22:09:29.557Z,12.50
2023-09-23T22:11:56.073Z,12.48
2023-09-23T22:14:22.607Z,12.43
2023-09-23T22:16:49.217Z,12.37
2023-09-23T22:19:15.705Z,12.37
2023-09-23T22:21:45.080Z,12.35
2023-09-23T22:24:12.502Z,12.35
2023-09-23T22:26:39.350Z,12.29
2023-09-23T22:29:11.018Z,12.27
2023-09-23T22:31:38.745Z,12.20
2023-09-23T22:34:05.340Z,12.19
2023-09-23T22:36:33.961Z,12.16
2023-09-23T22:39:00.867Z,12.14
2023-09-23T22:41:29.637Z,12.13
2023-09-23T22:43:56.915Z,12.13
2023-09-23T22:46:25.612Z,12.08
2023-09-23T22:48:52.676Z,12.05
2023-09-23T22:51:20.786Z,12.10
2023-09-23T22:53:47.976Z,12.09
2023-09-23T22:56:14.950Z,12.06
2023-09-23T22:58:42.106Z,12.05
2023-09-23T23:01:13.760Z,11.99
2023-09-23T23:03:40.486Z,11.96
2023-09-23T23:06:07.836Z,11.96
2023-09-23T23:08:35.657Z,11.91
2023-09-23T23:11:08.106Z,11.91
2023-09-23T23:13:36.791Z,11.88
2023-09-23T23:16:08.149Z,11.87
2023-09-23T23:18:35.144Z,11.83
2023-09-23T23:21:03.288Z,11.72
2023-09-23T23:23:31.460Z,11.70
2023-09-23T23:26:00.304Z,11.63
2023-09-23T23:28:28.339Z,11.61
2023-09-23T23:30:55.262Z,11.57
2023-09-23T23:33:22.543Z,11.51
2023-09-23T23:35:49.208Z,11.54
2023-09-23T23:38:15.893Z,11.58
2023-09-23T23:40:42.863Z,11.55
2023-09-23T23:43:11.673Z,11.51
2023-09-23T23:45:39.224Z,11.47
2023-09-23T23:48:05.868Z,11.47
2023-09-23T23:50:32.467Z,11.48
2023-09-23T23:52:58.974Z,11.49
2023-09-23T23:55:27.530Z,11.49
2023-09-23T23:57:54.404Z,11.45
